sensor_id;sensor_type;location;lat;lon;timestamp;P1;durP1;ratioP1;P2;durP2;ratioP2
19057;SDS011;9662;53.612;9.914;2022-09-21T00:01:45;4.63;;;2.90;;
19057;SDS011;9662;53.612;9.914;2022-09-21T00:04:11;3.72;;;3.33;;
19057;SDS011;9662;53.612;9.914;2022-09-21T00:06:38;2.53;;;2.42;;
19057;SDS011;9662;53.612;9.914;2022-09-21T00:09:06;5.32;;;3.08;;
19057;SDS011;9662;53.612;9.914;2022-09-21T00:11:33;4.78;;;2.53;;
19057;SDS011;9662;53.612;9.914;2022-09-21T00:14:02;5.47;;;2.70;;
19057;SDS011;9662;53.612;9.914;2022-09-21T00:16:31;2.40;;;2.30;;
19057;SDS011;9662;53.612;9.914;2022-09-21T00:18:58;3.78;;;2.60;;
19057;SDS011;9662;53.612;9.914;2022-09-21T00:21:25;2.87;;;2.67;;
19057;SDS011;9662;53.612;9.914;2022-09-21T00:23:52;3.13;;;2.83;;
19057;SDS011;9662;53.612;9.914;2022-09-21T00:26:21;4.63;;;2.90;;
19057;SDS011;9662;53.612;9.914;2022-09-21T00:28:50;4.33;;;2.97;;
19057;SDS011;9662;53.612;9.914;2022-09-21T00:31:18;2.90;;;2.60;;
19057;SDS011;9662;53.612;9.914;2022-09-21T00:33:45;2.92;;;2.70;;
19057;SDS011;9662;53.612;9.914;2022-09-21T00:36:13;2.88;;;2.60;;
19057;SDS011;9662;53.612;9.914;2022-09-21T00:38:41;2.95;;;2.65;;
19057;SDS011;9662;53.612;9.914;2022-09-21T00:41:09;3.08;;;2.63;;
19057;SDS011;9662;53.612;9.914;2022-09-21T00:43:39;2.80;;;2.58;;
19057;SDS011;9662;53.612;9.914;2022-09-21T00:46:11;5.00;;;2.42;;
19057;SDS011;9662;53.612;9.914;2022-09-21T00:48:41;2.63;;;2.40;;
19057;SDS011;9662;53.612;9.914;2022-09-21T00:51:09;2.90;;;2.70;;
19057;SDS011;9662;53.612;9.914;2022-09-21T00:53:36;2.67;;;2.47;;
19057;SDS011;9662;53.612;9.914;2022-09-21T00:56:03;2.90;;;2.55;;
19057;SDS011;9662;53.612;9.914;2022-09-21T00:58:32;2.90;;;2.55;;
19057;SDS011;9662;53.612;9.914;2022-09-21T01:01:05;3.37;;;2.90;;
19057;SDS011;9662;53.612;9.914;2022-09-21T01:03:32;2.63;;;2.42;;
19057;SDS011;9662;53.612;9.914;2022-09-21T01:05:59;4.60;;;2.45;;
19057;SDS011;9662;53.612;9.914;2022-09-21T01:08:26;3.80;;;2.75;;
19057;SDS011;9662;53.612;9.914;2022-09-21T01:11:02;3.70;;;2.90;;
19057;SDS011;9662;53.612;9.914;2022-09-21T01:13:42;6.88;;;2.90;;
19057;SDS011;9662;53.612;9.914;2022-09-21T01:16:21;4.68;;;2.63;;
19057;SDS011;9662;53.612;9.914;2022-09-21T01:18:57;2.70;;;2.47;;
19057;SDS011;9662;53.612;9.914;2022-09-21T01:21:35;3.00;;;2.58;;
19057;SDS011;9662;53.612;9.914;2022-09-21T01:24:21;2.90;;;2.55;;
19057;SDS011;9662;53.612;9.914;2022-09-21T01:30:02;4.13;;;3.13;;
19057;SDS011;9662;53.612;9.914;2022-09-21T01:32:32;4.60;;;2.50;;
19057;SDS011;9662;53.612;9.914;2022-09-21T01:35:04;2.88;;;2.63;;
19057;SDS011;9662;53.612;9.914;2022-09-21T01:37:34;2.78;;;2.47;;
19057;SDS011;9662;53.612;9.914;2022-09-21T01:40:06;2.65;;;2.50;;
19057;SDS011;9662;53.612;9.914;2022-09-21T01:42:37;2.80;;;2.65;;
19057;SDS011;9662;53.612;9.914;2022-09-21T01:45:07;2.70;;;2.42;;
19057;SDS011;9662;53.612;9.914;2022-09-21T01:47:39;2.42;;;2.33;;
19057;SDS011;9662;53.612;9.914;2022-09-21T01:50:07;4.00;;;2.85;;
19057;SDS011;9662;53.612;9.914;2022-09-21T01:52:36;3.05;;;2.75;;
19057;SDS011;9662;53.612;9.914;2022-09-21T01:55:08;3.03;;;2.75;;
19057;SDS011;9662;53.612;9.914;2022-09-21T01:57:39;2.97;;;2.78;;
19057;SDS011;9662;53.612;9.914;2022-09-21T02:00:12;2.70;;;2.50;;
19057;SDS011;9662;53.612;9.914;2022-09-21T02:02:43;2.72;;;2.55;;
19057;SDS011;9662;53.612;9.914;2022-09-21T02:05:15;3.47;;;2.60;;
19057;SDS011;9662;53.612;9.914;2022-09-21T02:07:45;3.35;;;2.72;;
19057;SDS011;9662;53.612;9.914;2022-09-21T02:10:14;3.15;;;2.88;;
19057;SDS011;9662;53.612;9.914;2022-09-21T02:12:45;2.75;;;2.30;;
19057;SDS011;9662;53.612;9.914;2022-09-21T02:15:14;3.13;;;2.92;;
19057;SDS011;9662;53.612;9.914;2022-09-21T02:17:42;3.10;;;2.80;;
19057;SDS011;9662;53.612;9.914;2022-09-21T02:20:22;3.38;;;2.75;;
19057;SDS011;9662;53.612;9.914;2022-09-21T02:22:56;2.58;;;2.47;;
19057;SDS011;9662;53.612;9.914;2022-09-21T02:25:30;3.03;;;2.75;;
19057;SDS011;9662;53.612;9.914;2022-09-21T02:28:06;2.60;;;2.40;;
19057;SDS011;9662;53.612;9.914;2022-09-21T02:30:38;2.60;;;2.38;;
19057;SDS011;9662;53.612;9.914;2022-09-21T02:33:10;3.55;;;2.50;;
19057;SDS011;9662;53.612;9.914;2022-09-21T02:35:43;2.65;;;2.55;;
19057;SDS011;9662;53.612;9.914;2022-09-21T02:38:16;2.78;;;2.58;;
19057;SDS011;9662;53.612;9.914;2022-09-21T02:40:51;2.83;;;2.63;;
19057;SDS011;9662;53.612;9.914;2022-09-21T02:43:22;2.60;;;2.50;;
19057;SDS011;9662;53.612;9.914;2022-09-21T02:45:55;3.00;;;2.85;;
19057;SDS011;9662;53.612;9.914;2022-09-21T02:48:26;3.25;;;2.95;;
19057;SDS011;9662;53.612;9.914;2022-09-21T02:50:59;4.50;;;2.60;;
19057;SDS011;9662;53.612;9.914;2022-09-21T02:53:31;4.63;;;2.50;;
19057;SDS011;9662;53.612;9.914;2022-09-21T02:56:01;2.80;;;2.60;;
19057;SDS011;9662;53.612;9.914;2022-09-21T02:58:31;3.38;;;2.88;;
19057;SDS011;9662;53.612;9.914;2022-09-21T03:01:02;2.70;;;2.60;;
19057;SDS011;9662;53.612;9.914;2022-09-21T03:03:33;2.60;;;2.50;;
19057;SDS011;9662;53.612;9.914;2022-09-21T03:05:59;2.63;;;2.43;;
19057;SDS011;9662;53.612;9.914;2022-09-21T03:08:27;3.10;;;2.90;;
19057;SDS011;9662;53.612;9.914;2022-09-21T03:10:54;3.58;;;2.80;;
19057;SDS011;9662;53.612;9.914;2022-09-21T03:13:21;3.15;;;2.70;;
19057;SDS011;9662;53.612;9.914;2022-09-21T03:15:48;2.67;;;2.47;;
19057;SDS011;9662;53.612;9.914;2022-09-21T03:18:17;2.97;;;2.78;;
19057;SDS011;9662;53.612;9.914;2022-09-21T03:20:44;6.00;;;2.65;;
19057;SDS011;9662;53.612;9.914;2022-09-21T03:23:11;6.40;;;3.35;;
19057;SDS011;9662;53.612;9.914;2022-09-21T03:25:38;7.57;;;3.28;;
19057;SDS011;9662;53.612;9.914;2022-09-21T03:28:05;7.82;;;3.60;;
19057;SDS011;9662;53.612;9.914;2022-09-21T03:30:32;4.90;;;3.60;;
19057;SDS011;9662;53.612;9.914;2022-09-21T03:32:58;3.10;;;2.90;;
19057;SDS011;9662;53.612;9.914;2022-09-21T03:35:26;6.63;;;3.63;;
19057;SDS011;9662;53.612;9.914;2022-09-21T03:37:54;3.70;;;3.40;;
19057;SDS011;9662;53.612;9.914;2022-09-21T03:40:22;9.55;;;3.95;;
19057;SDS011;9662;53.612;9.914;2022-09-21T03:42:50;7.70;;;4.10;;
19057;SDS011;9662;53.612;9.914;2022-09-21T03:45:17;11.32;;;4.50;;
19057;SDS011;9662;53.612;9.914;2022-09-21T03:47:43;10.25;;;4.32;;
19057;SDS011;9662;53.612;9.914;2022-09-21T03:50:10;14.52;;;4.88;;
19057;SDS011;9662;53.612;9.914;2022-09-21T03:52:39;7.45;;;4.20;;
19057;SDS011;9662;53.612;9.914;2022-09-21T03:55:07;12.98;;;4.65;;
19057;SDS011;9662;53.612;9.914;2022-09-21T03:57:34;8.45;;;4.88;;
19057;SDS011;9662;53.612;9.914;2022-09-21T04:00:02;8.48;;;4.55;;
19057;SDS011;9662;53.612;9.914;2022-09-21T04:02:30;11.35;;;4.53;;
19057;SDS011;9662;53.612;9.914;2022-09-21T04:04:56;7.80;;;4.22;;
19057;SDS011;9662;53.612;9.914;2022-09-21T04:07:24;4.68;;;4.25;;
19057;SDS011;9662;53.612;9.914;2022-09-21T04:09:52;6.85;;;4.30;;
19057;SDS011;9662;53.612;9.914;2022-09-21T04:12:20;6.90;;;3.87;;
19057;SDS011;9662;53.612;9.914;2022-09-21T04:14:47;5.15;;;4.00;;
19057;SDS011;9662;53.612;9.914;2022-09-21T04:17:14;4.95;;;4.18;;
19057;SDS011;9662;53.612;9.914;2022-09-21T04:19:40;4.80;;;4.30;;
19057;SDS011;9662;53.612;9.914;2022-09-21T04:22:09;4.63;;;4.03;;
19057;SDS011;9662;53.612;9.914;2022-09-21T04:24:36;4.38;;;4.05;;
19057;SDS011;9662;53.612;9.914;2022-09-21T04:27:06;3.80;;;3.60;;
19057;SDS011;9662;53.612;9.914;2022-09-21T04:29:32;4.53;;;4.13;;
19057;SDS011;9662;53.612;9.914;2022-09-21T04:31:59;4.23;;;4.03;;
19057;SDS011;9662;53.612;9.914;2022-09-21T04:34:26;5.00;;;3.80;;
19057;SDS011;9662;53.612;9.914;2022-09-21T04:36:55;4.00;;;3.70;;
19057;SDS011;9662;53.612;9.914;2022-09-21T04:39:22;4.40;;;4.10;;
19057;SDS011;9662;53.612;9.914;2022-09-21T04:41:49;3.80;;;3.60;;
19057;SDS011;9662;53.612;9.914;2022-09-21T04:44:17;4.15;;;3.95;;
19057;SDS011;9662;53.612;9.914;2022-09-21T04:46:44;4.05;;;3.80;;
19057;SDS011;9662;53.612;9.914;2022-09-21T04:49:11;4.07;;;3.80;;
19057;SDS011;9662;53.612;9.914;2022-09-21T04:51:38;4.72;;;4.32;;
19057;SDS011;9662;53.612;9.914;2022-09-21T04:54:04;4.03;;;3.58;;
19057;SDS011;9662;53.612;9.914;2022-09-21T04:56:31;4.10;;;3.80;;
19057;SDS011;9662;53.612;9.914;2022-09-21T04:58:59;3.88;;;3.58;;
19057;SDS011;9662;53.612;9.914;2022-09-21T05:01:27;3.55;;;3.45;;
19057;SDS011;9662;53.612;9.914;2022-09-21T05:03:54;3.15;;;3.05;;
19057;SDS011;9662;53.612;9.914;2022-09-21T05:06:22;3.80;;;3.60;;
19057;SDS011;9662;53.612;9.914;2022-09-21T05:08:49;3.40;;;3.23;;
19057;SDS011;9662;53.612;9.914;2022-09-21T05:11:39;4.32;;;4.03;;
19057;SDS011;9662;53.612;9.914;2022-09-21T05:14:06;4.28;;;3.97;;
19057;SDS011;9662;53.612;9.914;2022-09-21T05:16:35;3.78;;;3.58;;
19057;SDS011;9662;53.612;9.914;2022-09-21T05:19:02;4.05;;;3.75;;
19057;SDS011;9662;53.612;9.914;2022-09-21T05:21:29;4.00;;;3.75;;
19057;SDS011;9662;53.612;9.914;2022-09-21T05:23:56;4.20;;;3.90;;
19057;SDS011;9662;53.612;9.914;2022-09-21T05:26:22;5.45;;;3.90;;
19057;SDS011;9662;53.612;9.914;2022-09-21T05:28:50;7.97;;;4.20;;
19057;SDS011;9662;53.612;9.914;2022-09-21T05:31:23;5.30;;;4.87;;
19057;SDS011;9662;53.612;9.914;2022-09-21T05:33:58;5.72;;;5.22;;
19057;SDS011;9662;53.612;9.914;2022-09-21T05:36:34;9.30;;;6.10;;
19057;SDS011;9662;53.612;9.914;2022-09-21T05:39:08;10.65;;;8.00;;
19057;SDS011;9662;53.612;9.914;2022-09-21T05:41:35;8.23;;;7.13;;
19057;SDS011;9662;53.612;9.914;2022-09-21T05:44:03;9.00;;;7.25;;
19057;SDS011;9662;53.612;9.914;2022-09-21T05:46:32;10.02;;;7.30;;
19057;SDS011;9662;53.612;9.914;2022-09-21T05:49:06;7.73;;;7.00;;
19057;SDS011;9662;53.612;9.914;2022-09-21T05:51:42;9.65;;;8.43;;
19057;SDS011;9662;53.612;9.914;2022-09-21T05:54:16;17.67;;;9.05;;
19057;SDS011;9662;53.612;9.914;2022-09-21T05:56:47;11.75;;;8.13;;
19057;SDS011;9662;53.612;9.914;2022-09-21T05:59:31;8.55;;;6.97;;
19057;SDS011;9662;53.612;9.914;2022-09-21T06:02:13;6.57;;;6.03;;
19057;SDS011;9662;53.612;9.914;2022-09-21T06:04:49;8.63;;;5.75;;
19057;SDS011;9662;53.612;9.914;2022-09-21T06:07:18;7.18;;;5.72;;
19057;SDS011;9662;53.612;9.914;2022-09-21T06:09:44;8.23;;;6.55;;
19057;SDS011;9662;53.612;9.914;2022-09-21T06:12:11;6.63;;;5.88;;
19057;SDS011;9662;53.612;9.914;2022-09-21T06:14:38;5.97;;;5.43;;
19057;SDS011;9662;53.612;9.914;2022-09-21T06:17:05;5.22;;;4.72;;
19057;SDS011;9662;53.612;9.914;2022-09-21T06:19:31;5.80;;;5.38;;
19057;SDS011;9662;53.612;9.914;2022-09-21T06:21:59;5.10;;;4.60;;
19057;SDS011;9662;53.612;9.914;2022-09-21T06:24:26;4.80;;;4.50;;
19057;SDS011;9662;53.612;9.914;2022-09-21T06:26:53;4.57;;;4.35;;
19057;SDS011;9662;53.612;9.914;2022-09-21T06:29:19;5.03;;;4.72;;
19057;SDS011;9662;53.612;9.914;2022-09-21T06:31:47;5.80;;;5.23;;
19057;SDS011;9662;53.612;9.914;2022-09-21T06:34:14;5.82;;;5.32;;
19057;SDS011;9662;53.612;9.914;2022-09-21T06:36:41;7.47;;;4.82;;
19057;SDS011;9662;53.612;9.914;2022-09-21T06:39:11;5.53;;;5.07;;
19057;SDS011;9662;53.612;9.914;2022-09-21T06:41:38;6.13;;;4.87;;
19057;SDS011;9662;53.612;9.914;2022-09-21T06:44:04;8.75;;;5.18;;
19057;SDS011;9662;53.612;9.914;2022-09-21T06:46:31;5.40;;;5.00;;
19057;SDS011;9662;53.612;9.914;2022-09-21T06:48:58;5.68;;;4.75;;
19057;SDS011;9662;53.612;9.914;2022-09-21T06:51:24;6.22;;;4.68;;
19057;SDS011;9662;53.612;9.914;2022-09-21T06:53:53;5.40;;;5.10;;
19057;SDS011;9662;53.612;9.914;2022-09-21T06:56:22;5.20;;;4.88;;
19057;SDS011;9662;53.612;9.914;2022-09-21T06:58:50;4.80;;;4.50;;
19057;SDS011;9662;53.612;9.914;2022-09-21T07:01:17;5.03;;;4.65;;
19057;SDS011;9662;53.612;9.914;2022-09-21T07:03:47;5.07;;;4.77;;
19057;SDS011;9662;53.612;9.914;2022-09-21T07:06:14;4.72;;;4.38;;
19057;SDS011;9662;53.612;9.914;2022-09-21T07:08:44;4.47;;;4.00;;
19057;SDS011;9662;53.612;9.914;2022-09-21T07:11:11;4.07;;;3.75;;
19057;SDS011;9662;53.612;9.914;2022-09-21T07:13:39;3.53;;;3.33;;
19057;SDS011;9662;53.612;9.914;2022-09-21T07:16:07;3.95;;;3.75;;
19057;SDS011;9662;53.612;9.914;2022-09-21T07:18:34;3.70;;;3.40;;
19057;SDS011;9662;53.612;9.914;2022-09-21T07:21:02;3.60;;;3.50;;
19057;SDS011;9662;53.612;9.914;2022-09-21T07:23:29;4.15;;;3.85;;
19057;SDS011;9662;53.612;9.914;2022-09-21T07:25:59;4.20;;;3.90;;
19057;SDS011;9662;53.612;9.914;2022-09-21T07:28:27;4.40;;;4.10;;
19057;SDS011;9662;53.612;9.914;2022-09-21T07:30:56;4.68;;;4.38;;
19057;SDS011;9662;53.612;9.914;2022-09-21T07:33:23;4.65;;;4.28;;
19057;SDS011;9662;53.612;9.914;2022-09-21T07:35:50;4.53;;;4.20;;
19057;SDS011;9662;53.612;9.914;2022-09-21T07:38:17;4.97;;;4.03;;
19057;SDS011;9662;53.612;9.914;2022-09-21T07:40:44;4.50;;;4.20;;
19057;SDS011;9662;53.612;9.914;2022-09-21T07:43:11;4.82;;;4.43;;
19057;SDS011;9662;53.612;9.914;2022-09-21T07:45:38;9.60;;;4.50;;
19057;SDS011;9662;53.612;9.914;2022-09-21T07:48:06;5.05;;;4.10;;
19057;SDS011;9662;53.612;9.914;2022-09-21T07:50:33;4.38;;;3.97;;
19057;SDS011;9662;53.612;9.914;2022-09-21T07:53:01;8.70;;;4.00;;
19057;SDS011;9662;53.612;9.914;2022-09-21T07:55:28;5.00;;;4.50;;
19057;SDS011;9662;53.612;9.914;2022-09-21T07:57:55;5.63;;;4.10;;
19057;SDS011;9662;53.612;9.914;2022-09-21T08:00:40;4.55;;;4.18;;
19057;SDS011;9662;53.612;9.914;2022-09-21T08:03:08;9.63;;;4.53;;
19057;SDS011;9662;53.612;9.914;2022-09-21T08:05:34;7.30;;;4.32;;
19057;SDS011;9662;53.612;9.914;2022-09-21T08:08:01;4.03;;;3.67;;
19057;SDS011;9662;53.612;9.914;2022-09-21T08:10:28;4.22;;;3.92;;
19057;SDS011;9662;53.612;9.914;2022-09-21T08:12:56;4.63;;;4.10;;
19057;SDS011;9662;53.612;9.914;2022-09-21T08:15:23;8.50;;;4.20;;
19057;SDS011;9662;53.612;9.914;2022-09-21T08:17:51;4.03;;;3.83;;
19057;SDS011;9662;53.612;9.914;2022-09-21T08:20:19;4.28;;;4.03;;
19057;SDS011;9662;53.612;9.914;2022-09-21T08:22:47;5.53;;;3.90;;
19057;SDS011;9662;53.612;9.914;2022-09-21T08:25:14;4.45;;;4.05;;
19057;SDS011;9662;53.612;9.914;2022-09-21T08:27:40;7.50;;;3.45;;
19057;SDS011;9662;53.612;9.914;2022-09-21T08:30:07;3.43;;;3.10;;
19057;SDS011;9662;53.612;9.914;2022-09-21T08:32:37;3.90;;;3.47;;
19057;SDS011;9662;53.612;9.914;2022-09-21T08:35:04;3.90;;;3.60;;
19057;SDS011;9662;53.612;9.914;2022-09-21T08:37:33;6.05;;;3.10;;
19057;SDS011;9662;53.612;9.914;2022-09-21T08:40:01;5.82;;;3.10;;
19057;SDS011;9662;53.612;9.914;2022-09-21T08:42:33;4.47;;;3.42;;
19057;SDS011;9662;53.612;9.914;2022-09-21T08:45:09;3.70;;;3.40;;
19057;SDS011;9662;53.612;9.914;2022-09-21T08:47:39;3.88;;;3.40;;
19057;SDS011;9662;53.612;9.914;2022-09-21T08:50:14;3.55;;;3.35;;
19057;SDS011;9662;53.612;9.914;2022-09-21T08:52:53;3.10;;;3.00;;
19057;SDS011;9662;53.612;9.914;2022-09-21T08:55:25;4.88;;;2.95;;
19057;SDS011;9662;53.612;9.914;2022-09-21T08:57:52;3.40;;;3.10;;
19057;SDS011;9662;53.612;9.914;2022-09-21T09:00:19;3.10;;;2.67;;
19057;SDS011;9662;53.612;9.914;2022-09-21T09:02:56;2.45;;;2.35;;
19057;SDS011;9662;53.612;9.914;2022-09-21T09:05:39;2.00;;;1.90;;
19057;SDS011;9662;53.612;9.914;2022-09-21T09:08:20;1.60;;;1.60;;
19057;SDS011;9662;53.612;9.914;2022-09-21T09:11:14;2.73;;;1.53;;
19057;SDS011;9662;53.612;9.914;2022-09-21T09:16:43;3.22;;;2.00;;
19057;SDS011;9662;53.612;9.914;2022-09-21T09:19:20;2.67;;;2.00;;
19057;SDS011;9662;53.612;9.914;2022-09-21T09:21:54;1.90;;;1.80;;
19057;SDS011;9662;53.612;9.914;2022-09-21T09:24:28;4.30;;;2.35;;
19057;SDS011;9662;53.612;9.914;2022-09-21T09:26:59;2.30;;;2.20;;
19057;SDS011;9662;53.612;9.914;2022-09-21T09:29:30;2.20;;;2.00;;
19057;SDS011;9662;53.612;9.914;2022-09-21T09:32:05;1.92;;;1.85;;
19057;SDS011;9662;53.612;9.914;2022-09-21T09:34:38;1.95;;;1.85;;
19057;SDS011;9662;53.612;9.914;2022-09-21T09:37:09;2.00;;;1.85;;
19057;SDS011;9662;53.612;9.914;2022-09-21T09:39:38;2.42;;;1.70;;
19057;SDS011;9662;53.612;9.914;2022-09-21T09:42:21;2.50;;;2.00;;
19057;SDS011;9662;53.612;9.914;2022-09-21T09:45:00;3.05;;;2.03;;
19057;SDS011;9662;53.612;9.914;2022-09-21T09:47:39;2.13;;;1.42;;
19057;SDS011;9662;53.612;9.914;2022-09-21T09:50:17;5.60;;;1.75;;
19057;SDS011;9662;53.612;9.914;2022-09-21T09:52:51;1.80;;;1.60;;
19057;SDS011;9662;53.612;9.914;2022-09-21T09:55:24;1.35;;;1.35;;
19057;SDS011;9662;53.612;9.914;2022-09-21T09:57:54;2.17;;;1.50;;
19057;SDS011;9662;53.612;9.914;2022-09-21T10:00:22;1.83;;;1.67;;
19057;SDS011;9662;53.612;9.914;2022-09-21T10:02:49;1.55;;;1.35;;
19057;SDS011;9662;53.612;9.914;2022-09-21T10:05:19;2.47;;;1.13;;
19057;SDS011;9662;53.612;9.914;2022-09-21T10:07:47;1.10;;;1.10;;
19057;SDS011;9662;53.612;9.914;2022-09-21T10:10:21;1.27;;;1.27;;
19057;SDS011;9662;53.612;9.914;2022-09-21T10:12:53;2.20;;;1.30;;
19057;SDS011;9662;53.612;9.914;2022-09-21T10:15:22;1.20;;;1.20;;
19057;SDS011;9662;53.612;9.914;2022-09-21T10:17:56;1.00;;;1.00;;
19057;SDS011;9662;53.612;9.914;2022-09-21T10:20:29;1.23;;;1.13;;
19057;SDS011;9662;53.612;9.914;2022-09-21T10:22:58;1.80;;;0.93;;
19057;SDS011;9662;53.612;9.914;2022-09-21T10:25:25;1.02;;;1.02;;
19057;SDS011;9662;53.612;9.914;2022-09-21T10:27:53;1.20;;;1.10;;
19057;SDS011;9662;53.612;9.914;2022-09-21T10:30:31;1.00;;;1.00;;
19057;SDS011;9662;53.612;9.914;2022-09-21T10:32:59;1.95;;;1.05;;
19057;SDS011;9662;53.612;9.914;2022-09-21T10:35:26;1.30;;;1.20;;
19057;SDS011;9662;53.612;9.914;2022-09-21T10:38:07;1.02;;;1.02;;
19057;SDS011;9662;53.612;9.914;2022-09-21T10:40:35;1.20;;;1.20;;
19057;SDS011;9662;53.612;9.914;2022-09-21T10:43:04;1.05;;;1.00;;
19057;SDS011;9662;53.612;9.914;2022-09-21T10:45:50;1.10;;;1.10;;
19057;SDS011;9662;53.612;9.914;2022-09-21T10:48:19;2.13;;;1.10;;
19057;SDS011;9662;53.612;9.914;2022-09-21T10:50:48;1.25;;;1.20;;
19057;SDS011;9662;53.612;9.914;2022-09-21T10:53:18;1.33;;;1.10;;
19057;SDS011;9662;53.612;9.914;2022-09-21T10:55:52;1.33;;;1.30;;
19057;SDS011;9662;53.612;9.914;2022-09-21T10:58:24;5.03;;;1.40;;
19057;SDS011;9662;53.612;9.914;2022-09-21T11:00:51;1.20;;;1.20;;
19057;SDS011;9662;53.612;9.914;2022-09-21T11:03:35;1.60;;;1.50;;
19057;SDS011;9662;53.612;9.914;2022-09-21T11:06:11;1.02;;;1.00;;
19057;SDS011;9662;53.612;9.914;2022-09-21T11:08:43;1.50;;;1.50;;
19057;SDS011;9662;53.612;9.914;2022-09-21T11:11:19;1.10;;;1.10;;
19057;SDS011;9662;53.612;9.914;2022-09-21T11:14:06;1.10;;;1.10;;
19057;SDS011;9662;53.612;9.914;2022-09-21T11:16:43;1.00;;;1.00;;
19057;SDS011;9662;53.612;9.914;2022-09-21T11:19:16;1.65;;;1.25;;
19057;SDS011;9662;53.612;9.914;2022-09-21T11:21:49;1.80;;;1.50;;
19057;SDS011;9662;53.612;9.914;2022-09-21T11:24:23;1.90;;;1.80;;
19057;SDS011;9662;53.612;9.914;2022-09-21T11:26:58;1.25;;;1.20;;
19057;SDS011;9662;53.612;9.914;2022-09-21T11:29:32;1.83;;;1.73;;
19057;SDS011;9662;53.612;9.914;2022-09-21T11:32:09;2.50;;;1.50;;
19057;SDS011;9662;53.612;9.914;2022-09-21T11:37:59;1.80;;;1.70;;
19057;SDS011;9662;53.612;9.914;2022-09-21T11:40:34;1.50;;;1.50;;
19057;SDS011;9662;53.612;9.914;2022-09-21T11:43:16;1.50;;;1.50;;
19057;SDS011;9662;53.612;9.914;2022-09-21T11:45:56;1.83;;;1.83;;
19057;SDS011;9662;53.612;9.914;2022-09-21T11:48:34;2.50;;;1.60;;
19057;SDS011;9662;53.612;9.914;2022-09-21T11:51:18;1.60;;;1.50;;
19057;SDS011;9662;53.612;9.914;2022-09-21T11:54:17;1.75;;;1.63;;
19057;SDS011;9662;53.612;9.914;2022-09-21T11:57:03;1.77;;;1.67;;
19057;SDS011;9662;53.612;9.914;2022-09-21T11:59:42;3.22;;;1.27;;
19057;SDS011;9662;53.612;9.914;2022-09-21T12:02:25;1.35;;;1.33;;
19057;SDS011;9662;53.612;9.914;2022-09-21T12:05:02;1.15;;;1.10;;
19057;SDS011;9662;53.612;9.914;2022-09-21T12:07:44;1.10;;;1.10;;
19057;SDS011;9662;53.612;9.914;2022-09-21T12:10:34;1.00;;;1.00;;
19057;SDS011;9662;53.612;9.914;2022-09-21T12:13:05;1.23;;;1.13;;
19057;SDS011;9662;53.612;9.914;2022-09-21T12:15:38;1.08;;;1.08;;
19057;SDS011;9662;53.612;9.914;2022-09-21T12:18:11;1.05;;;1.05;;
19057;SDS011;9662;53.612;9.914;2022-09-21T12:20:44;1.20;;;1.20;;
19057;SDS011;9662;53.612;9.914;2022-09-21T12:23:16;1.00;;;0.90;;
19057;SDS011;9662;53.612;9.914;2022-09-21T12:25:48;1.10;;;1.10;;
19057;SDS011;9662;53.612;9.914;2022-09-21T12:28:19;2.45;;;1.30;;
19057;SDS011;9662;53.612;9.914;2022-09-21T12:30:50;1.52;;;1.42;;
19057;SDS011;9662;53.612;9.914;2022-09-21T12:33:24;3.10;;;1.45;;
19057;SDS011;9662;53.612;9.914;2022-09-21T12:35:57;0.88;;;0.88;;
19057;SDS011;9662;53.612;9.914;2022-09-21T12:38:29;1.30;;;1.20;;
19057;SDS011;9662;53.612;9.914;2022-09-21T12:41:02;1.20;;;1.20;;
19057;SDS011;9662;53.612;9.914;2022-09-21T12:43:42;1.35;;;1.30;;
19057;SDS011;9662;53.612;9.914;2022-09-21T12:46:12;1.30;;;1.30;;
19057;SDS011;9662;53.612;9.914;2022-09-21T12:48:45;1.20;;;1.20;;
19057;SDS011;9662;53.612;9.914;2022-09-21T12:51:13;1.45;;;1.35;;
19057;SDS011;9662;53.612;9.914;2022-09-21T12:53:44;1.95;;;1.67;;
19057;SDS011;9662;53.612;9.914;2022-09-21T12:56:14;1.70;;;1.60;;
19057;SDS011;9662;53.612;9.914;2022-09-21T12:58:55;1.90;;;1.50;;
19057;SDS011;9662;53.612;9.914;2022-09-21T13:01:34;2.08;;;1.67;;
19057;SDS011;9662;53.612;9.914;2022-09-21T13:04:11;1.50;;;1.50;;
19057;SDS011;9662;53.612;9.914;2022-09-21T13:09:48;1.77;;;1.67;;
19057;SDS011;9662;53.612;9.914;2022-09-21T13:12:17;1.60;;;1.50;;
19057;SDS011;9662;53.612;9.914;2022-09-21T13:14:47;1.35;;;1.35;;
19057;SDS011;9662;53.612;9.914;2022-09-21T13:17:19;1.33;;;1.33;;
19057;SDS011;9662;53.612;9.914;2022-09-21T13:19:56;1.10;;;1.10;;
19057;SDS011;9662;53.612;9.914;2022-09-21T13:22:25;1.13;;;1.13;;
19057;SDS011;9662;53.612;9.914;2022-09-21T13:24:59;1.27;;;1.27;;
19057;SDS011;9662;53.612;9.914;2022-09-21T13:30:28;1.42;;;1.33;;
19057;SDS011;9662;53.612;9.914;2022-09-21T13:32:57;1.08;;;1.08;;
19057;SDS011;9662;53.612;9.914;2022-09-21T13:35:49;1.15;;;1.15;;
19057;SDS011;9662;53.612;9.914;2022-09-21T13:38:22;1.20;;;1.20;;
19057;SDS011;9662;53.612;9.914;2022-09-21T13:40:55;1.10;;;1.10;;
19057;SDS011;9662;53.612;9.914;2022-09-21T13:43:24;1.10;;;1.10;;
19057;SDS011;9662;53.612;9.914;2022-09-21T13:46:10;0.90;;;0.90;;
19057;SDS011;9662;53.612;9.914;2022-09-21T13:49:17;1.35;;;1.10;;
19057;SDS011;9662;53.612;9.914;2022-09-21T13:51:50;1.02;;;1.02;;
19057;SDS011;9662;53.612;9.914;2022-09-21T13:54:20;1.13;;;1.13;;
19057;SDS011;9662;53.612;9.914;2022-09-21T13:57:01;0.80;;;0.80;;
19057;SDS011;9662;53.612;9.914;2022-09-21T13:59:31;2.60;;;1.02;;
19057;SDS011;9662;53.612;9.914;2022-09-21T14:02:00;0.95;;;0.93;;
19057;SDS011;9662;53.612;9.914;2022-09-21T14:04:31;1.10;;;1.10;;
19057;SDS011;9662;53.612;9.914;2022-09-21T14:07:02;1.30;;;1.20;;
19057;SDS011;9662;53.612;9.914;2022-09-21T14:09:33;3.38;;;1.02;;
19057;SDS011;9662;53.612;9.914;2022-09-21T14:12:07;0.90;;;0.90;;
19057;SDS011;9662;53.612;9.914;2022-09-21T14:14:43;1.02;;;1.02;;
19057;SDS011;9662;53.612;9.914;2022-09-21T14:17:37;1.23;;;1.13;;
19057;SDS011;9662;53.612;9.914;2022-09-21T14:20:05;1.70;;;1.70;;
19057;SDS011;9662;53.612;9.914;2022-09-21T14:28:27;0.93;;;0.90;;
19057;SDS011;9662;53.612;9.914;2022-09-21T14:31:01;1.20;;;0.90;;
19057;SDS011;9662;53.612;9.914;2022-09-21T14:33:34;0.88;;;0.88;;
19057;SDS011;9662;53.612;9.914;2022-09-21T14:36:07;0.90;;;0.90;;
19057;SDS011;9662;53.612;9.914;2022-09-21T14:38:40;1.37;;;1.37;;
19057;SDS011;9662;53.612;9.914;2022-09-21T14:41:15;1.00;;;1.00;;
19057;SDS011;9662;53.612;9.914;2022-09-21T14:43:47;7.75;;;1.33;;
19057;SDS011;9662;53.612;9.914;2022-09-21T14:46:30;7.73;;;1.33;;
19057;SDS011;9662;53.612;9.914;2022-09-21T14:49:14;2.78;;;1.33;;
19057;SDS011;9662;53.612;9.914;2022-09-21T14:52:01;1.00;;;0.90;;
19057;SDS011;9662;53.612;9.914;2022-09-21T14:54:33;61.80;;;7.70;;
19057;SDS011;9662;53.612;9.914;2022-09-21T15:00:10;3.72;;;1.20;;
19057;SDS011;9662;53.612;9.914;2022-09-21T15:02:46;192.30;;;21.63;;
19057;SDS011;9662;53.612;9.914;2022-09-21T15:05:22;110.72;;;14.32;;
19057;SDS011;9662;53.612;9.914;2022-09-21T15:07:59;63.83;;;8.77;;
19057;SDS011;9662;53.612;9.914;2022-09-21T15:10:53;109.63;;;10.93;;
19057;SDS011;9662;53.612;9.914;2022-09-21T15:13:30;169.18;;;17.77;;
19057;SDS011;9662;53.612;9.914;2022-09-21T15:16:30;330.63;;;32.08;;
19057;SDS011;9662;53.612;9.914;2022-09-21T15:19:13;113.03;;;11.00;;
19057;SDS011;9662;53.612;9.914;2022-09-21T15:21:46;30.60;;;4.32;;
19057;SDS011;9662;53.612;9.914;2022-09-21T15:27:03;229.45;;;22.52;;
19057;SDS011;9662;53.612;9.914;2022-09-21T15:29:34;58.05;;;7.35;;
19057;SDS011;9662;53.612;9.914;2022-09-21T15:32:02;172.13;;;17.10;;
19057;SDS011;9662;53.612;9.914;2022-09-21T15:34:32;90.07;;;9.23;;
19057;SDS011;9662;53.612;9.914;2022-09-21T15:37:05;112.00;;;12.85;;
19057;SDS011;9662;53.612;9.914;2022-09-21T15:39:39;111.88;;;12.13;;
19057;SDS011;9662;53.612;9.914;2022-09-21T15:42:16;146.20;;;15.50;;
19057;SDS011;9662;53.612;9.914;2022-09-21T15:44:46;89.23;;;10.30;;
19057;SDS011;9662;53.612;9.914;2022-09-21T15:47:16;116.40;;;13.15;;
19057;SDS011;9662;53.612;9.914;2022-09-21T15:49:47;120.00;;;12.32;;
19057;SDS011;9662;53.612;9.914;2022-09-21T15:52:18;91.22;;;10.68;;
19057;SDS011;9662;53.612;9.914;2022-09-21T15:54:51;51.28;;;6.65;;